Time;durP1;ratioP1;P1;durP2;ratioP2;P2;SDS_P1;SDS_P2;PMS_P1;PMS_P2;Temp;Humidity;BMP_temperature;BMP_pressure;BME280_temperature;BME280_humidity;BME280_pressure;Samples;Min_cycle;Max_cycle;Signal;HPM_P1;HPM_P2
2023/12/25 00:01:02;;;;;;;1.15;0.52;;;;;;;;;;5054486;28;20320;-58
2023/12/25 00:03:28;;;;;;;1.30;0.60;;;;;;;;;;5054645;28;20040;-54
2023/12/25 00:05:54;;;;;;;1.30;0.52;;;;;;;;;;5053325;28;20021;-58
2023/12/25 00:08:20;;;;;;;2.17;0.77;;;;;;;;;;5055331;28;20025;-55
2023/12/25 00:10:46;;;;;;;0.93;0.40;;;;;;;;;;5055002;28;20127;-59
2023/12/25 00:13:12;;;;;;;1.02;0.40;;;;;;;;;;5054334;28;20526;-54
2023/12/25 00:15:39;;;;;;;1.75;0.50;;;;;;;;;;5054420;28;20032;-52
2023/12/25 00:18:05;;;;;;;2.83;0.43;;;;;;;;;;5054881;28;20025;-55
2023/12/25 00:20:31;;;;;;;1.67;0.95;;;;;;;;;;5054929;28;20146;-58
2023/12/25 00:22:57;;;;;;;1.55;0.55;;;;;;;;;;5054781;28;20088;-58
2023/12/25 00:25:23;;;;;;;0.73;0.30;;;;;;;;;;5054272;28;20056;-58
2023/12/25 00:27:48;;;;;;;1.60;0.57;;;;;;;;;;5055002;28;20407;-57
2023/12/25 00:30:15;;;;;;;1.25;0.40;;;;;;;;;;5054418;28;20367;-58
2023/12/25 00:32:41;;;;;;;1.25;0.60;;;;;;;;;;5054584;28;20374;-55
2023/12/25 00:35:07;;;;;;;1.23;0.32;;;;;;;;;;5054499;28;20447;-57
2023/12/25 00:37:32;;;;;;;4.97;0.40;;;;;;;;;;5054037;28;20032;-57
2023/12/25 00:39:58;;;;;;;1.10;0.50;;;;;;;;;;5053658;28;20029;-56
2023/12/25 00:42:24;;;;;;;2.53;0.57;;;;;;;;;;5054370;28;20036;-57
2023/12/25 00:44:50;;;;;;;0.50;0.30;;;;;;;;;;5053929;28;20370;-57
2023/12/25 00:47:16;;;;;;;1.00;0.30;;;;;;;;;;5054717;28;20036;-56
2023/12/25 00:49:42;;;;;;;0.70;0.30;;;;;;;;;;5054352;28;20315;-57
2023/12/25 00:52:08;;;;;;;0.82;0.32;;;;;;;;;;5053819;28;20032;-57
2023/12/25 00:54:36;;;;;;;0.88;0.40;;;;;;;;;;5054083;28;20103;-57
2023/12/25 00:57:02;;;;;;;0.68;0.40;;;;;;;;;;5054366;28;20096;-57
2023/12/25 00:59:28;;;;;;;1.15;0.47;;;;;;;;;;5053840;28;20430;-56
2023/12/25 01:01:54;;;;;;;1.48;0.70;;;;;;;;;;5053615;28;20044;-57
2023/12/25 01:04:20;;;;;;;0.60;0.20;;;;;;;;;;5053694;28;20044;-56
2023/12/25 01:06:46;;;;;;;0.50;0.20;;;;;;;;;;5053672;28;20064;-56
2023/12/25 01:09:12;;;;;;;1.20;0.50;;;;;;;;;;5054520;28;20355;-57
2023/12/25 01:11:40;;;;;;;1.25;0.43;;;;;;;;;;5053537;28;20036;-57
2023/12/25 01:14:06;;;;;;;1.13;0.32;;;;;;;;;;5054317;28;20029;-57
2023/12/25 01:16:32;;;;;;;0.85;0.40;;;;;;;;;;5053948;28;20466;-57
2023/12/25 01:18:58;;;;;;;0.85;0.40;;;;;;;;;;5053568;28;20059;-57
2023/12/25 01:21:24;;;;;;;0.60;0.40;;;;;;;;;;5053486;28;20060;-57
2023/12/25 01:23:53;;;;;;;0.85;0.43;;;;;;;;;;5053201;28;20057;-57
2023/12/25 01:26:19;;;;;;;1.08;0.30;;;;;;;;;;5053141;28;20094;-55
2023/12/25 01:28:45;;;;;;;1.80;0.60;;;;;;;;;;5054063;28;20029;-57
2023/12/25 01:31:11;;;;;;;1.77;0.38;;;;;;;;;;5053165;28;20021;-57
2023/12/25 01:33:37;;;;;;;1.00;0.40;;;;;;;;;;5054275;28;20107;-56
2023/12/25 01:36:03;;;;;;;1.40;0.50;;;;;;;;;;5054166;28;20067;-56
2023/12/25 01:38:29;;;;;;;0.73;0.30;;;;;;;;;;5053989;28;20509;-56
2023/12/25 01:40:55;;;;;;;1.17;0.50;;;;;;;;;;5053840;28;20029;-57
2023/12/25 01:43:21;;;;;;;0.80;0.45;;;;;;;;;;5052991;28;20039;-56
2023/12/25 01:45:47;;;;;;;0.73;0.20;;;;;;;;;;5053614;28;20379;-57
2023/12/25 01:48:13;;;;;;;1.88;0.50;;;;;;;;;;5054131;28;20408;-58
2023/12/25 01:50:42;;;;;;;0.82;0.50;;;;;;;;;;5053254;28;20056;-58
2023/12/25 01:53:08;;;;;;;0.77;0.30;;;;;;;;;;5053489;28;20029;-58
2023/12/25 01:55:34;;;;;;;1.13;0.68;;;;;;;;;;5053353;28;20497;-56
2023/12/25 01:58:01;;;;;;;0.98;0.43;;;;;;;;;;5053135;28;20033;-58
2023/12/25 02:00:26;;;;;;;0.63;0.30;;;;;;;;;;5053097;28;20025;-57
2023/12/25 02:02:53;;;;;;;0.57;0.30;;;;;;;;;;5053591;28;20032;-57
2023/12/25 02:05:19;;;;;;;1.13;0.50;;;;;;;;;;5053568;28;20037;-59
2023/12/25 02:07:46;;;;;;;0.73;0.30;;;;;;;;;;5053432;28;20064;-57
2023/12/25 02:10:24;;;;;;;0.73;0.30;;;;;;;;;;5053642;28;20032;-57
2023/12/25 02:12:53;;;;;;;1.92;0.57;;;;;;;;;;5053440;28;20104;-58
2023/12/25 02:15:20;;;;;;;1.17;0.60;;;;;;;;;;5053583;28;20031;-56
2023/12/25 02:17:46;;;;;;;0.80;0.30;;;;;;;;;;5053098;28;20033;-58
2023/12/25 02:20:13;;;;;;;0.68;0.40;;;;;;;;;;5052947;28;20028;-58
2023/12/25 02:22:39;;;;;;;0.70;0.32;;;;;;;;;;5052894;28;20029;-56
2023/12/25 02:25:12;;;;;;;0.90;0.30;;;;;;;;;;5052938;28;20037;-56
2023/12/25 02:27:38;;;;;;;1.08;0.40;;;;;;;;;;5054499;28;20364;-56
2023/12/25 02:30:05;;;;;;;0.88;0.40;;;;;;;;;;5056141;28;20036;-55
2023/12/25 02:32:31;;;;;;;0.70;0.30;;;;;;;;;;5056706;28;20029;-55
2023/12/25 02:34:57;;;;;;;0.95;0.45;;;;;;;;;;5056813;28;20332;-58
2023/12/25 02:37:23;;;;;;;0.95;0.50;;;;;;;;;;5056983;28;20111;-58
2023/12/25 02:39:49;;;;;;;0.73;0.30;;;;;;;;;;5056312;28;20050;-58
2023/12/25 02:42:15;;;;;;;1.17;0.50;;;;;;;;;;5055823;28;20032;-56
2023/12/25 02:44:41;;;;;;;0.82;0.40;;;;;;;;;;5056734;28;20036;-57
2023/12/25 02:47:07;;;;;;;0.40;0.22;;;;;;;;;;5056248;28;20114;-57
2023/12/25 02:49:33;;;;;;;0.65;0.25;;;;;;;;;;5056678;28;20421;-58
2023/12/25 02:51:59;;;;;;;0.55;0.30;;;;;;;;;;5056860;28;20355;-57
2023/12/25 02:54:25;;;;;;;0.70;0.25;;;;;;;;;;5056012;28;20032;-58
2023/12/25 02:56:51;;;;;;;1.98;0.43;;;;;;;;;;5056859;28;20053;-58
2023/12/25 02:59:17;;;;;;;0.88;0.40;;;;;;;;;;5056143;28;20160;-59
2023/12/25 03:01:43;;;;;;;0.80;0.45;;;;;;;;;;5055750;28;20111;-56
2023/12/25 03:04:08;;;;;;;0.70;0.40;;;;;;;;;;5055863;28;20029;-58
2023/12/25 03:06:34;;;;;;;3.15;0.40;;;;;;;;;;5055726;28;20049;-58
2023/12/25 03:09:00;;;;;;;0.85;0.30;;;;;;;;;;5055871;28;20029;-58
2023/12/25 03:11:26;;;;;;;1.25;0.80;;;;;;;;;;5056253;28;20037;-55
2023/12/25 03:13:52;;;;;;;1.15;0.57;;;;;;;;;;5055372;28;20025;-56
2023/12/25 03:16:21;;;;;;;1.00;0.40;;;;;;;;;;5055963;28;20504;-58
2023/12/25 03:18:47;;;;;;;1.00;0.63;;;;;;;;;;5056159;28;20029;-58
2023/12/25 03:21:13;;;;;;;0.70;0.30;;;;;;;;;;5055685;28;20021;-58
2023/12/25 03:23:39;;;;;;;0.40;0.28;;;;;;;;;;5055560;28;20486;-59
2023/12/25 03:26:05;;;;;;;1.48;0.55;;;;;;;;;;5055472;28;20356;-58
2023/12/25 03:28:31;;;;;;;7.18;0.93;;;;;;;;;;5056219;28;20091;-57
2023/12/25 03:30:57;;;;;;;1.33;0.50;;;;;;;;;;5055405;28;20463;-57
2023/12/25 03:33:23;;;;;;;0.85;0.38;;;;;;;;;;5055313;28;20036;-58
2023/12/25 03:35:49;;;;;;;1.20;0.55;;;;;;;;;;5055261;28;20095;-58
2023/12/25 03:38:15;;;;;;;1.08;0.32;;;;;;;;;;5055273;28;20035;-58
2023/12/25 03:40:41;;;;;;;0.55;0.28;;;;;;;;;;5055770;28;20439;-56
2023/12/25 03:43:07;;;;;;;0.85;0.35;;;;;;;;;;5054726;28;20056;-58
2023/12/25 03:45:33;;;;;;;0.93;0.30;;;;;;;;;;5055289;28;20094;-58
2023/12/25 03:47:59;;;;;;;0.57;0.30;;;;;;;;;;5055335;28;20052;-58
2023/12/25 03:50:27;;;;;;;0.65;0.30;;;;;;;;;;5054989;28;20458;-58
2023/12/25 03:52:53;;;;;;;1.10;0.35;;;;;;;;;;5055099;28;20033;-58
2023/12/25 03:55:19;;;;;;;0.43;0.32;;;;;;;;;;5054643;28;20041;-58
2023/12/25 03:57:45;;;;;;;2.55;0.63;;;;;;;;;;5055365;28;20025;-57
2023/12/25 04:00:11;;;;;;;2.17;0.70;;;;;;;;;;5054421;28;20031;-57
2023/12/25 04:02:38;;;;;;;0.63;0.35;;;;;;;;;;5054915;28;20040;-59
2023/12/25 04:05:04;;;;;;;1.88;0.50;;;;;;;;;;5055456;28;20040;-58
2023/12/25 04:07:30;;;;;;;0.75;0.43;;;;;;;;;;5054906;28;20025;-56
2023/12/25 04:09:56;;;;;;;0.82;0.38;;;;;;;;;;5054672;28;20029;-56
2023/12/25 04:12:22;;;;;;;0.10;0.10;;;;;;;;;;5054282;28;20438;-56
2023/12/25 04:14:48;;;;;;;0.43;0.20;;;;;;;;;;5055065;28;20064;-56
2023/12/25 04:17:14;;;;;;;0.60;0.25;;;;;;;;;;5055267;28;20440;-56
2023/12/25 04:19:40;;;;;;;1.38;0.40;;;;;;;;;;5054338;28;20025;-54
2023/12/25 04:22:06;;;;;;;0.65;0.30;;;;;;;;;;5054821;28;20102;-54
2023/12/25 04:24:32;;;;;;;1.08;0.40;;;;;;;;;;5054629;28;20451;-52
2023/12/25 04:26:58;;;;;;;1.27;0.50;;;;;;;;;;5054260;28;20099;-56
2023/12/25 04:29:24;;;;;;;1.35;0.60;;;;;;;;;;5054232;28;20067;-54
2023/12/25 04:31:50;;;;;;;1.00;0.50;;;;;;;;;;5054171;28;20025;-55
2023/12/25 04:34:16;;;;;;;0.82;0.40;;;;;;;;;;5054390;28;20036;-53
2023/12/25 04:36:43;;;;;;;0.80;0.32;;;;;;;;;;5054591;28;20029;-55
2023/12/25 04:39:09;;;;;;;0.68;0.30;;;;;;;;;;5054065;28;20033;-56
2023/12/25 04:41:34;;;;;;;0.63;0.30;;;;;;;;;;5053934;28;20029;-56
2023/12/25 04:44:00;;;;;;;0.80;0.63;;;;;;;;;;5054013;28;20031;-55
2023/12/25 04:46:26;;;;;;;1.17;0.47;;;;;;;;;;5054519;28;20061;-55
2023/12/25 04:48:52;;;;;;;0.50;0.30;;;;;;;;;;5054781;28;20439;-54
2023/12/25 04:51:18;;;;;;;0.80;0.35;;;;;;;;;;5053786;28;20033;-55
2023/12/25 04:53:44;;;;;;;0.52;0.30;;;;;;;;;;5054144;28;20029;-53
2023/12/25 04:56:11;;;;;;;0.88;0.38;;;;;;;;;;5053982;28;20127;-55
2023/12/25 04:58:37;;;;;;;1.17;0.47;;;;;;;;;;5054079;28;20047;-54
2023/12/25 05:01:04;;;;;;;0.20;0.10;;;;;;;;;;5053659;28;20025;-54
2023/12/25 05:03:30;;;;;;;0.75;0.25;;;;;;;;;;5053980;28;20430;-56
2023/12/25 05:05:56;;;;;;;1.05;0.45;;;;;;;;;;5053830;28;20029;-57
2023/12/25 05:08:22;;;;;;;1.17;0.43;;;;;;;;;;5054286;28;20086;-56
2023/12/25 05:10:49;;;;;;;1.02;0.47;;;;;;;;;;5054284;28;20108;-54
2023/12/25 05:13:15;;;;;;;2.25;0.60;;;;;;;;;;5054217;28;20025;-55
2023/12/25 05:15:41;;;;;;;0.63;0.38;;;;;;;;;;5053717;28;20104;-56
2023/12/25 05:18:07;;;;;;;0.75;0.30;;;;;;;;;;5054283;28;20021;-57
2023/12/25 05:20:33;;;;;;;1.38;0.45;;;;;;;;;;5053968;28;20425;-57
2023/12/25 05:22:59;;;;;;;2.38;0.55;;;;;;;;;;5053549;28;20035;-54
2023/12/25 05:25:25;;;;;;;0.77;0.40;;;;;;;;;;5054109;28;20025;-54
2023/12/25 05:27:51;;;;;;;0.75;0.30;;;;;;;;;;5054446;28;20080;-56
2023/12/25 05:30:17;;;;;;;1.17;0.40;;;;;;;;;;5053627;28;20025;-56
2023/12/25 05:32:42;;;;;;;0.93;0.35;;;;;;;;;;5053533;28;20037;-53
2023/12/25 05:35:09;;;;;;;0.77;0.30;;;;;;;;;;5053722;28;20079;-57
2023/12/25 05:37:38;;;;;;;0.43;0.25;;;;;;;;;;5053578;28;20516;-55
2023/12/25 05:40:04;;;;;;;0.90;0.40;;;;;;;;;;5053982;28;20036;-56
2023/12/25 05:42:30;;;;;;;2.42;0.30;;;;;;;;;;5053363;28;20449;-54
2023/12/25 05:44:57;;;;;;;1.23;0.47;;;;;;;;;;5053348;28;20069;-54
2023/12/25 05:47:23;;;;;;;2.88;0.50;;;;;;;;;;5053934;28;20108;-56
2023/12/25 05:49:49;;;;;;;1.40;0.43;;;;;;;;;;5053425;28;20425;-53
2023/12/25 05:52:15;;;;;;;0.90;0.30;;;;;;;;;;5053327;28;20064;-55
2023/12/25 05:54:42;;;;;;;0.73;0.40;;;;;;;;;;5053152;28;20049;-54
2023/12/25 05:57:08;;;;;;;1.42;0.43;;;;;;;;;;5053859;28;20375;-57
2023/12/25 05:59:35;;;;;;;0.75;0.43;;;;;;;;;;5053715;28;20028;-54
2023/12/25 06:02:01;;;;;;;0.80;0.40;;;;;;;;;;5054791;28;20402;-55
2023/12/25 06:04:27;;;;;;;1.25;0.50;;;;;;;;;;5057620;28;20359;-57
2023/12/25 06:06:53;;;;;;;1.70;0.50;;;;;;;;;;5056922;28;20021;-52
2023/12/25 06:09:20;;;;;;;0.68;0.38;;;;;;;;;;5057255;28;20485;-53
2023/12/25 06:11:45;;;;;;;1.20;0.40;;;;;;;;;;5057452;28;20029;-54
2023/12/25 06:14:11;;;;;;;0.57;0.28;;;;;;;;;;5056960;28;20083;-54
2023/12/25 06:16:37;;;;;;;1.05;0.47;;;;;;;;;;5057328;28;20079;-55
2023/12/25 06:19:03;;;;;;;0.95;0.43;;;;;;;;;;5057297;28;20466;-57
2023/12/25 06:21:29;;;;;;;0.32;0.10;;;;;;;;;;5056298;28;20470;-57
2023/12/25 06:23:56;;;;;;;0.52;0.28;;;;;;;;;;5057037;28;20025;-57
2023/12/25 06:26:22;;;;;;;1.92;0.57;;;;;;;;;;5057427;28;20029;-56
2023/12/25 06:28:48;;;;;;;1.38;0.47;;;;;;;;;;5056972;28;20108;-56
2023/12/25 06:31:14;;;;;;;1.50;0.57;;;;;;;;;;5057294;28;20118;-57
2023/12/25 06:33:40;;;;;;;0.98;0.40;;;;;;;;;;5057022;28;20064;-57
2023/12/25 06:36:07;;;;;;;1.00;0.40;;;;;;;;;;5056987;28;20328;-56
2023/12/25 06:38:32;;;;;;;0.90;0.40;;;;;;;;;;5056490;28;20032;-57
2023/12/25 06:40:58;;;;;;;1.17;0.57;;;;;;;;;;5056052;28;20021;-55
2023/12/25 06:43:24;;;;;;;1.00;0.60;;;;;;;;;;5056317;28;20087;-55
2023/12/25 06:45:50;;;;;;;5.05;0.40;;;;;;;;;;5056277;28;20037;-56
2023/12/25 06:48:16;;;;;;;3.38;0.70;;;;;;;;;;5056784;28;20090;-57
2023/12/25 06:50:42;;;;;;;1.33;0.60;;;;;;;;;;5056209;28;20031;-56
2023/12/25 06:53:08;;;;;;;0.70;0.30;;;;;;;;;;5056137;28;20534;-55
2023/12/25 06:55:34;;;;;;;0.90;0.50;;;;;;;;;;5055909;28;20049;-57
2023/12/25 06:58:00;;;;;;;1.25;0.55;;;;;;;;;;5056326;28;20348;-57
2023/12/25 07:00:26;;;;;;;1.95;0.47;;;;;;;;;;5055890;28;20025;-57
2023/12/25 07:02:52;;;;;;;0.93;0.35;;;;;;;;;;5056404;28;20032;-56
2023/12/25 07:05:18;;;;;;;0.93;0.55;;;;;;;;;;5055941;28;20048;-55
2023/12/25 07:07:44;;;;;;;1.27;0.50;;;;;;;;;;5056515;28;20021;-56
2023/12/25 07:10:10;;;;;;;0.80;0.35;;;;;;;;;;5056318;28;20033;-55
2023/12/25 07:12:36;;;;;;;0.35;0.22;;;;;;;;;;5055679;28;20082;-56
2023/12/25 07:15:02;;;;;;;1.08;0.63;;;;;;;;;;5055274;28;20029;-57
2023/12/25 07:17:28;;;;;;;1.35;0.70;;;;;;;;;;5056590;28;20399;-56
2023/12/25 07:19:54;;;;;;;0.82;0.25;;;;;;;;;;5055637;28;20025;-54
2023/12/25 07:22:19;;;;;;;1.35;0.47;;;;;;;;;;5056156;28;20037;-57
2023/12/25 07:24:45;;;;;;;0.50;0.32;;;;;;;;;;5055245;28;20114;-54
2023/12/25 07:27:11;;;;;;;0.70;0.30;;;;;;;;;;5056207;28;20447;-57
2023/12/25 07:29:37;;;;;;;0.90;0.35;;;;;;;;;;5055954;28;20028;-57
2023/12/25 07:32:03;;;;;;;0.55;0.30;;;;;;;;;;5055937;28;20029;-54
2023/12/25 07:34:29;;;;;;;1.00;0.57;;;;;;;;;;5055345;28;20032;-56
2023/12/25 07:36:55;;;;;;;0.88;0.40;;;;;;;;;;5055182;28;20029;-57
2023/12/25 07:39:21;;;;;;;2.97;0.50;;;;;;;;;;5055617;28;20100;-55
2023/12/25 07:41:47;;;;;;;0.93;0.45;;;;;;;;;;5055126;28;20025;-57
2023/12/25 07:44:16;;;;;;;0.68;0.32;;;;;;;;;;5055144;28;20028;-56
2023/12/25 07:46:42;;;;;;;0.80;0.32;;;;;;;;;;5054855;28;20028;-56
2023/12/25 07:49:08;;;;;;;1.02;0.47;;;;;;;;;;5056015;28;20025;-54
2023/12/25 07:51:34;;;;;;;0.88;0.47;;;;;;;;;;5054768;28;20535;-57
2023/12/25 07:54:00;;;;;;;1.83;0.70;;;;;;;;;;5054993;28;20028;-57
2023/12/25 07:56:26;;;;;;;1.10;0.45;;;;;;;;;;5054726;28;20529;-56
2023/12/25 07:58:52;;;;;;;1.00;0.50;;;;;;;;;;5055386;28;20017;-58
2023/12/25 08:01:19;;;;;;;2.55;0.63;;;;;;;;;;5055285;28;20066;-53
2023/12/25 08:03:45;;;;;;;1.17;0.50;;;;;;;;;;5054777;28;20029;-57
2023/12/25 08:06:11;;;;;;;1.30;0.60;;;;;;;;;;5054697;28;20032;-57
2023/12/25 08:08:37;;;;;;;0.80;0.40;;;;;;;;;;5054629;28;20013;-56
2023/12/25 08:11:03;;;;;;;1.05;0.40;;;;;;;;;;5055426;28;20032;-57
2023/12/25 08:13:29;;;;;;;1.15;0.60;;;;;;;;;;5054476;28;20375;-58
2023/12/25 08:15:55;;;;;;;3.42;0.82;;;;;;;;;;5055265;28;20024;-58
2023/12/25 08:18:21;;;;;;;1.15;0.50;;;;;;;;;;5054826;28;20522;-59
2023/12/25 08:20:47;;;;;;;0.88;0.57;;;;;;;;;;5053835;28;20364;-58
2023/12/25 08:23:13;;;;;;;1.25;0.50;;;;;;;;;;5054912;28;20025;-55
2023/12/25 08:25:40;;;;;;;1.80;0.60;;;;;;;;;;5053536;28;20044;-54
2023/12/25 08:28:06;;;;;;;1.13;0.60;;;;;;;;;;5054931;28;20112;-54
2023/12/25 08:30:32;;;;;;;1.02;0.40;;;;;;;;;;5054723;28;20061;-55
2023/12/25 08:32:58;;;;;;;1.10;0.43;;;;;;;;;;5054329;28;20489;-55
2023/12/25 08:35:24;;;;;;;1.33;0.57;;;;;;;;;;5054293;28;20033;-55
2023/12/25 08:37:50;;;;;;;1.63;0.57;;;;;;;;;;5054768;28;20340;-56
2023/12/25 08:40:16;;;;;;;0.85;0.50;;;;;;;;;;5054873;28;20057;-55
2023/12/25 08:42:42;;;;;;;0.90;0.43;;;;;;;;;;5054380;28;20071;-57
2023/12/25 08:45:09;;;;;;;3.95;1.00;;;;;;;;;;5054121;28;20112;-57
2023/12/25 08:47:34;;;;;;;0.52;0.20;;;;;;;;;;5054667;28;20025;-57
2023/12/25 08:50:00;;;;;;;1.65;0.55;;;;;;;;;;5054078;28;20451;-57
2023/12/25 08:52:26;;;;;;;1.00;0.50;;;;;;;;;;5053821;28;20029;-58
2023/12/25 08:54:52;;;;;;;1.42;0.80;;;;;;;;;;5054274;28;20049;-57
2023/12/25 08:57:18;;;;;;;1.27;0.57;;;;;;;;;;5054202;28;20082;-57
2023/12/25 08:59:49;;;;;;;1.13;0.43;;;;;;;;;;5053751;28;20021;-56
2023/12/25 09:02:15;;;;;;;0.90;0.50;;;;;;;;;;5054491;28;20409;-55
2023/12/25 09:04:40;;;;;;;1.30;0.60;;;;;;;;;;5053395;28;20033;-57
2023/12/25 09:07:06;;;;;;;0.98;0.50;;;;;;;;;;5054021;28;20032;-56
2023/12/25 09:09:32;;;;;;;2.17;0.77;;;;;;;;;;5053585;28;20017;-57
2023/12/25 09:11:58;;;;;;;1.95;0.60;;;;;;;;;;5053653;28;20029;-57
2023/12/25 09:14:24;;;;;;;0.65;0.30;;;;;;;;;;5053750;28;20057;-58
2023/12/25 09:16:50;;;;;;;0.68;0.35;;;;;;;;;;5053689;28;20370;-55
2023/12/25 09:19:16;;;;;;;0.95;0.40;;;;;;;;;;5053777;28;20065;-57
2023/12/25 09:21:42;;;;;;;1.10;0.52;;;;;;;;;;5053204;28;20036;-56
2023/12/25 09:24:08;;;;;;;0.47;0.32;;;;;;;;;;5053415;28;20486;-56
2023/12/25 09:26:34;;;;;;;0.95;0.40;;;;;;;;;;5053961;28;20033;-56
2023/12/25 09:29:00;;;;;;;0.80;0.40;;;;;;;;;;5053507;28;20036;-56
2023/12/25 09:31:26;;;;;;;1.00;0.47;;;;;;;;;;5053625;28;20033;-57
2023/12/25 09:33:52;;;;;;;1.10;0.50;;;;;;;;;;5053562;28;20028;-56
2023/12/25 09:36:18;;;;;;;1.40;0.57;;;;;;;;;;5054394;28;20025;-54
2023/12/25 09:38:44;;;;;;;0.98;0.47;;;;;;;;;;5058057;28;20032;-57
2023/12/25 09:41:11;;;;;;;0.45;0.32;;;;;;;;;;5056961;28;20451;-56
2023/12/25 09:43:42;;;;;;;1.88;0.90;;;;;;;;;;5057669;28;20033;-58
2023/12/25 09:46:10;;;;;;;2.33;1.00;;;;;;;;;;5057211;28;20446;-56
2023/12/25 09:48:38;;;;;;;1.27;0.57;;;;;;;;;;5057938;28;20028;-57
2023/12/25 09:51:04;;;;;;;0.40;0.20;;;;;;;;;;5057229;28;20113;-57
2023/12/25 09:53:30;;;;;;;2.13;0.60;;;;;;;;;;5057578;28;20086;-58
2023/12/25 09:55:57;;;;;;;1.13;0.50;;;;;;;;;;5057241;28;20049;-56
2023/12/25 09:58:23;;;;;;;1.88;0.82;;;;;;;;;;5057550;28;20029;-55
2023/12/25 10:00:49;;;;;;;1.10;0.57;;;;;;;;;;5057086;28;20032;-57
2023/12/25 10:03:16;;;;;;;3.80;0.68;;;;;;;;;;5056981;28;20033;-54
2023/12/25 10:05:42;;;;;;;0.82;0.38;;;;;;;;;;5057069;28;20032;-58
2023/12/25 10:08:08;;;;;;;4.10;0.68;;;;;;;;;;5057733;28;20025;-56
2023/12/25 10:10:34;;;;;;;3.25;0.95;;;;;;;;;;5056769;28;20074;-56
2023/12/25 10:13:00;;;;;;;1.38;0.63;;;;;;;;;;5057088;28;20033;-58
2023/12/25 10:15:26;;;;;;;1.77;0.60;;;;;;;;;;5057112;28;20025;-58
2023/12/25 10:18:05;;;;;;;0.70;0.32;;;;;;;;;;5057084;28;20025;-58
2023/12/25 10:20:31;;;;;;;0.88;0.38;;;;;;;;;;5056546;28;20021;-58
2023/12/25 10:22:57;;;;;;;0.90;0.40;;;;;;;;;;5056589;28;20036;-57
2023/12/25 10:25:28;;;;;;;0.70;0.32;;;;;;;;;;5057065;28;20351;-58
2023/12/25 10:27:54;;;;;;;0.90;0.30;;;;;;;;;;5056705;28;20459;-54
2023/12/25 10:30:26;;;;;;;1.05;0.40;;;;;;;;;;5056494;28;20027;-56
2023/12/25 10:33:12;;;;;;;0.68;0.40;;;;;;;;;;5057124;28;20362;-56
2023/12/25 10:35:38;;;;;;;0.38;0.20;;;;;;;;;;5056759;28;20029;-54
2023/12/25 10:38:05;;;;;;;0.70;0.28;;;;;;;;;;5056989;28;20332;-56
2023/12/25 10:40:31;;;;;;;0.57;0.30;;;;;;;;;;5056428;28;20372;-57
2023/12/25 10:42:58;;;;;;;1.23;0.50;;;;;;;;;;5056796;28;20094;-55
2023/12/25 10:45:25;;;;;;;3.28;0.70;;;;;;;;;;5056346;28;20025;-57
2023/12/25 10:48:03;;;;;;;0.47;0.30;;;;;;;;;;5056246;28;20351;-57
2023/12/25 10:50:33;;;;;;;0.43;0.20;;;;;;;;;;5056769;28;20084;-54
2023/12/25 10:53:00;;;;;;;0.75;0.30;;;;;;;;;;5056475;28;20032;-58
2023/12/25 10:55:32;;;;;;;0.93;0.40;;;;;;;;;;5055707;28;20041;-58
2023/12/25 10:57:59;;;;;;;0.70;0.30;;;;;;;;;;5056458;28;20443;-56
2023/12/25 11:00:25;;;;;;;1.20;0.40;;;;;;;;;;5055765;28;20033;-52
2023/12/25 11:02:55;;;;;;;0.70;0.40;;;;;;;;;;5056399;28;20531;-56
2023/12/25 11:05:21;;;;;;;0.97;0.23;;;;;;;;;;5055905;28;20029;-55
2023/12/25 11:07:48;;;;;;;0.75;0.32;;;;;;;;;;5056435;28;20100;-55
2023/12/25 11:10:14;;;;;;;1.02;0.32;;;;;;;;;;5056352;28;20405;-55
2023/12/25 11:12:40;;;;;;;1.50;0.68;;;;;;;;;;5056328;28;20118;-55
2023/12/25 11:15:06;;;;;;;2.47;1.67;;;;;;;;;;5055694;28;20025;-55
2023/12/25 11:17:35;;;;;;;1.10;0.60;;;;;;;;;;5055986;28;20520;-54
2023/12/25 11:20:04;;;;;;;2.47;0.65;;;;;;;;;;5055629;28;20108;-55
2023/12/25 11:22:30;;;;;;;1.08;0.47;;;;;;;;;;5055781;28;20419;-55
2023/12/25 11:24:57;;;;;;;1.08;0.45;;;;;;;;;;5055543;28;20035;-56
2023/12/25 11:27:26;;;;;;;1.52;0.40;;;;;;;;;;5056116;28;20032;-56
2023/12/25 11:29:51;;;;;;;1.42;0.40;;;;;;;;;;5055499;28;20024;-55
2023/12/25 11:32:18;;;;;;;0.50;0.22;;;;;;;;;;5055432;28;20041;-56
2023/12/25 11:34:48;;;;;;;0.52;0.22;;;;;;;;;;5055890;28;20047;-55
2023/12/25 11:37:14;;;;;;;;;;;;;;;;;;5055839;28;20116;-55
2023/12/25 11:39:48;;;;;;;0.85;0.50;;;;;;;;;;5054941;28;19991;-56
2023/12/25 11:42:14;;;;;;;0.95;0.40;;;;;;;;;;5055731;28;20043;-56
2023/12/25 11:44:41;;;;;;;1.15;0.60;;;;;;;;;;5055079;28;20062;-55
2023/12/25 11:47:07;;;;;;;2.58;0.50;;;;;;;;;;5055639;28;20025;-56
2023/12/25 11:49:33;;;;;;;2.40;0.73;;;;;;;;;;5055471;28;20405;-56
2023/12/25 11:51:59;;;;;;;0.80;0.30;;;;;;;;;;5055437;28;20035;-56
2023/12/25 11:54:33;;;;;;;0.90;0.40;;;;;;;;;;5055329;28;20431;-56
2023/12/25 11:57:02;;;;;;;0.50;0.30;;;;;;;;;;5055488;28;20057;-55
2023/12/25 11:59:29;;;;;;;0.40;0.20;;;;;;;;;;5054542;28;20030;-55
2023/12/25 12:01:55;;;;;;;1.25;0.52;;;;;;;;;;5055274;28;20044;-55
2023/12/25 12:04:22;;;;;;;0.52;0.30;;;;;;;;;;5054966;28;20041;-56
2023/12/25 12:06:49;;;;;;;0.80;0.35;;;;;;;;;;5054937;28;20108;-54
2023/12/25 12:09:15;;;;;;;0.70;0.40;;;;;;;;;;5055545;28;20033;-55
2023/12/25 12:11:41;;;;;;;0.73;0.30;;;;;;;;;;5054638;28;20056;-55
2023/12/25 12:14:07;;;;;;;0.68;0.30;;;;;;;;;;5054272;28;20032;-56
2023/12/25 12:16:34;;;;;;;0.95;0.43;;;;;;;;;;5055348;28;20037;-56
2023/12/25 12:19:00;;;;;;;0.40;0.20;;;;;;;;;;5054516;28;20040;-55
2023/12/25 12:21:26;;;;;;;0.80;0.38;;;;;;;;;;5055198;28;20021;-56
2023/12/25 12:23:52;;;;;;;1.20;0.40;;;;;;;;;;5054857;28;20582;-57
2023/12/25 12:26:18;;;;;;;0.68;0.40;;;;;;;;;;5054088;28;20056;-56
2023/12/25 12:28:46;;;;;;;0.45;0.35;;;;;;;;;;5054924;28;20028;-56
2023/12/25 12:31:13;;;;;;;1.98;0.75;;;;;;;;;;5054508;28;20028;-56
2023/12/25 12:33:40;;;;;;;1.17;0.50;;;;;;;;;;5054212;28;20044;-55
2023/12/25 12:36:06;;;;;;;0.47;0.30;;;;;;;;;;5054223;28;20032;-56
2023/12/25 12:38:33;;;;;;;0.95;0.43;;;;;;;;;;5054715;28;20132;-55
2023/12/25 12:41:00;;;;;;;0.90;0.40;;;;;;;;;;5054587;28;20132;-55
2023/12/25 12:43:26;;;;;;;0.55;0.35;;;;;;;;;;5054454;28;20029;-55
2023/12/25 12:45:52;;;;;;;0.22;0.10;;;;;;;;;;5054564;28;20379;-56
2023/12/25 12:48:18;;;;;;;0.80;0.40;;;;;;;;;;5054778;28;20048;-56
2023/12/25 12:50:44;;;;;;;3.00;0.80;;;;;;;;;;5054501;28;20409;-56
2023/12/25 12:53:10;;;;;;;1.00;0.60;;;;;;;;;;5054628;28;20037;-55
2023/12/25 12:55:36;;;;;;;1.30;0.65;;;;;;;;;;5053895;28;20045;-55
2023/12/25 12:58:03;;;;;;;3.00;1.15;;;;;;;;;;5053795;28;20033;-56
2023/12/25 13:00:29;;;;;;;1.30;0.60;;;;;;;;;;5053729;28;20036;-56
2023/12/25 13:02:58;;;;;;;1.10;0.50;;;;;;;;;;5053767;28;20033;-56
2023/12/25 13:05:24;;;;;;;0.63;0.40;;;;;;;;;;5053783;28;20463;-56
2023/12/25 13:07:51;;;;;;;1.20;0.57;;;;;;;;;;5053933;28;20037;-55
2023/12/25 13:10:17;;;;;;;0.80;0.40;;;;;;;;;;5053998;28;20032;-56
2023/12/25 13:12:43;;;;;;;1.05;0.45;;;;;;;;;;5053275;28;20455;-56
2023/12/25 13:15:09;;;;;;;0.85;0.32;;;;;;;;;;5054065;28;20044;-56
2023/12/25 13:17:35;;;;;;;0.77;0.32;;;;;;;;;;5054466;28;20028;-56
2023/12/25 13:20:01;;;;;;;0.32;0.28;;;;;;;;;;5053638;28;20064;-56
2023/12/25 13:22:27;;;;;;;0.22;0.20;;;;;;;;;;5053466;28;20036;-55
2023/12/25 13:24:53;;;;;;;0.70;0.40;;;;;;;;;;5053767;28;20029;-56
2023/12/25 13:27:20;;;;;;;0.43;0.17;;;;;;;;;;5053859;28;20455;-56
2023/12/25 13:29:46;;;;;;;0.45;0.20;;;;;;;;;;5053485;28;20037;-56
2023/12/25 13:32:12;;;;;;;0.30;0.20;;;;;;;;;;5053125;28;20040;-56
2023/12/25 13:34:38;;;;;;;1.42;0.50;;;;;;;;;;5053118;28;20033;-56
2023/12/25 13:37:05;;;;;;;0.52;0.32;;;;;;;;;;5053859;28;20021;-56
2023/12/25 13:39:31;;;;;;;1.45;0.60;;;;;;;;;;5053357;28;20040;-56
2023/12/25 13:41:57;;;;;;;1.08;0.57;;;;;;;;;;5053204;28;20112;-56
2023/12/25 13:44:25;;;;;;;1.27;0.40;;;;;;;;;;5053328;28;20126;-56
2023/12/25 13:46:51;;;;;;;1.20;0.30;;;;;;;;;;5054064;28;20117;-56
2023/12/25 13:49:17;;;;;;;0.57;0.30;;;;;;;;;;5054106;28;20431;-56
2023/12/25 13:51:43;;;;;;;1.20;0.50;;;;;;;;;;5053285;28;20031;-55
2023/12/25 13:54:09;;;;;;;1.25;0.45;;;;;;;;;;5053715;28;20091;-53
2023/12/25 13:56:35;;;;;;;0.73;0.40;;;;;;;;;;5053894;28;20519;-56
2023/12/25 13:59:01;;;;;;;1.50;0.80;;;;;;;;;;5053191;28;20391;-56
2023/12/25 14:01:27;;;;;;;1.45;0.60;;;;;;;;;;5052919;28;20047;-56
2023/12/25 14:03:53;;;;;;;0.93;0.40;;;;;;;;;;5053549;28;20041;-55
2023/12/25 14:06:20;;;;;;;1.08;0.68;;;;;;;;;;5053603;28;20029;-56
2023/12/25 14:08:46;;;;;;;1.10;0.50;;;;;;;;;;5053017;28;20469;-56
2023/12/25 14:11:12;;;;;;;1.35;0.70;;;;;;;;;;5052884;28;20159;-55
2023/12/25 14:13:38;;;;;;;1.65;1.10;;;;;;;;;;5053536;28;20033;-56
2023/12/25 14:16:04;;;;;;;1.10;0.60;;;;;;;;;;5053148;28;20079;-56
2023/12/25 14:18:30;;;;;;;1.70;0.63;;;;;;;;;;5053642;28;20021;-56
2023/12/25 14:20:56;;;;;;;1.17;0.50;;;;;;;;;;5053832;28;20047;-56
2023/12/25 14:23:22;;;;;;;1.05;0.35;;;;;;;;;;5055165;28;20025;-55
2023/12/25 14:25:49;;;;;;;1.45;1.13;;;;;;;;;;5057157;28;20033;-55
2023/12/25 14:28:15;;;;;;;1.35;0.65;;;;;;;;;;5056533;28;20071;-56
2023/12/25 14:30:41;;;;;;;1.00;0.40;;;;;;;;;;5056994;28;20106;-55
2023/12/25 14:33:08;;;;;;;1.15;0.52;;;;;;;;;;5056570;28;20455;-55
2023/12/25 14:35:34;;;;;;;1.50;0.32;;;;;;;;;;5056736;28;20083;-56
2023/12/25 14:38:00;;;;;;;1.60;0.38;;;;;;;;;;5057028;28;20053;-56